^^
Saratoga-Weather Station Historical Data
Daily Summary for October 31, 2021 Units:  Both    English   Metric
Daily Weekly Monthly Yearly Custom
  High: Low: Average:
Temperature: 64.6 °F /  18.1 °C 49.6 °F /  9.8 °C 57 °F /  13.9 °C
Dew Point: 59 °F /  15 °C 48.6 °F /  9.2 °C 54.3 °F /  12.4 °C
Humidity: 98% 80% 91%
Wind Speed: 15mph /  24.1km/h - 1.8mph /  2.9km/h
Wind Gust: 17mph /  27.4km/h - -
Wind- - SE
Pressure: 29.8 in /  1008.1 hPa 29.5 in /  998.0 hPa -
Precipitation: 0.22 in /  5.6 mm    
Historical Graphs
 
 
Tabular Data for October 31, 2021
Time Temperature Dew Point Pressure Wind Wind Speed Wind Gust Humidity Rainfall Rate (Hourly) solar
00:01 56.7 °F /  13.7 °C 55 °F /  12.8 °C 29.7in /  1006.8hPa Calm     94% 0.02in /  0.5mm 0 W/m2
00:06 56.7 °F /  13.7 °C 55 °F /  12.8 °C 29.7in /  1006.8hPa Calm     94% 0.02in /  0.5mm 0 W/m2
00:11 56.5 °F /  13.6 °C 54.9 °F /  12.7 °C 29.7in /  1007.1hPa ENE 2mph /  3.2km/h 3mph /  4.8km/h 94% 0.02in /  0.5mm 0 W/m2
00:16 56.5 °F /  13.6 °C 54.9 °F /  12.7 °C 29.7in /  1007.1hPa NW 0.9mph /  1.4km/h 4mph /  6.4km/h 94% 0.02in /  0.5mm 0 W/m2
00:21 56.5 °F /  13.6 °C 55 °F /  12.8 °C 29.7in /  1007.1hPa West 2mph /  3.2km/h 2mph /  3.2km/h 95% 0.02in /  0.5mm 0 W/m2
00:26 56.5 °F /  13.6 °C 55 °F /  12.8 °C 29.7in /  1007.1hPa Calm   1mph /  1.6km/h 95% 0.02in /  0.5mm 0 W/m2
00:31 56.5 °F /  13.6 °C 55 °F /  12.8 °C 29.8in /  1007.5hPa Calm   1mph /  1.6km/h 95% 0.02in /  0.5mm 0 W/m2
00:36 56.3 °F /  13.5 °C 54.9 °F /  12.7 °C 29.8in /  1007.5hPa Calm     95% 0.02in /  0.5mm 0 W/m2
00:41 56.3 °F /  13.5 °C 54.9 °F /  12.7 °C 29.8in /  1007.5hPa Calm   2mph /  3.2km/h 95% 0.02in /  0.5mm 0 W/m2
00:46 56.1 °F /  13.4 °C 54.7 °F /  12.6 °C 29.8in /  1007.5hPa Calm     95% 0.02in /  0.5mm 0 W/m2
00:51 56.1 °F /  13.4 °C 54.7 °F /  12.6 °C 29.8in /  1007.5hPa Calm     95% 0.02in /  0.5mm 0 W/m2
00:56 56.1 °F /  13.4 °C 54.7 °F /  12.6 °C 29.8in /  1007.5hPa Calm     95% 0.01in /  0.2mm 0 W/m2
01:01 55.9 °F /  13.3 °C 54.5 °F /  12.5 °C 29.8in /  1007.5hPa Calm     95% 0.01in /  0.2mm 0 W/m2
01:06 55.8 °F /  13.2 °C 54.3 °F /  12.4 °C 29.8in /  1007.5hPa East 0.9mph /  1.4km/h 2mph /  3.2km/h 95% 0.01in /  0.2mm 0 W/m2
01:11 55.8 °F /  13.2 °C 54.3 °F /  12.4 °C 29.8in /  1007.5hPa Calm     95% 0.01in /  0.2mm 0 W/m2
01:16 55.6 °F /  13.1 °C 54.1 °F /  12.3 °C 29.8in /  1007.5hPa East 0.9mph /  1.4km/h 2mph /  3.2km/h 95% 0in /  0.0mm 0 W/m2
01:21 55.6 °F /  13.1 °C 54.1 °F /  12.3 °C 29.8in /  1007.5hPa Calm   2mph /  3.2km/h 95% 0in /  0.0mm 0 W/m2
01:26 55.6 °F /  13.1 °C 54.1 °F /  12.3 °C 29.8in /  1007.5hPa WNW 0.9mph /  1.4km/h 2mph /  3.2km/h 95% 0in /  0.0mm 0 W/m2
01:31 55.6 °F /  13.1 °C 54.1 °F /  12.3 °C 29.8in /  1007.8hPa Calm     95% 0in /  0.0mm 0 W/m2
01:36 55.4 °F /  13 °C 54 °F /  12.2 °C 29.8in /  1007.5hPa Calm   2mph /  3.2km/h 95% 0in /  0.0mm 0 W/m2
01:41 55.2 °F /  12.9 °C 53.8 °F /  12.1 °C 29.8in /  1007.8hPa Calm     95% 0in /  0.0mm 0 W/m2
01:46 55.2 °F /  12.9 °C 53.8 °F /  12.1 °C 29.8in /  1007.5hPa Calm     95% 0in /  0.0mm 0 W/m2
01:51 55.2 °F /  12.9 °C 54.1 °F /  12.3 °C 29.8in /  1007.8hPa East 0.9mph /  1.4km/h 2mph /  3.2km/h 96% 0in /  0.0mm 0 W/m2
01:56 55.2 °F /  12.9 °C 54.1 °F /  12.3 °C 29.8in /  1007.8hPa South 0.9mph /  1.4km/h 2mph /  3.2km/h 96% 0in /  0.0mm 0 W/m2
02:01 55.2 °F /  12.9 °C 54.1 °F /  12.3 °C 29.8in /  1007.8hPa Calm     96% 0in /  0.0mm 0 W/m2
02:06 55.2 °F /  12.9 °C 54.1 °F /  12.3 °C 29.8in /  1007.8hPa SSE 0.9mph /  1.4km/h 2mph /  3.2km/h 96% 0in /  0.0mm 0 W/m2
02:11 55 °F /  12.8 °C 54 °F /  12.2 °C 29.8in /  1007.8hPa Calm     96% 0in /  0.0mm 0 W/m2
02:16 55 °F /  12.8 °C 54 °F /  12.2 °C 29.8in /  1008.1hPa Calm     96% 0in /  0.0mm 0 W/m2
02:21 55 °F /  12.8 °C 54 °F /  12.2 °C 29.8in /  1008.1hPa East 0.9mph /  1.4km/h 2mph /  3.2km/h 96% 0in /  0.0mm 0 W/m2
02:26 55 °F /  12.8 °C 54 °F /  12.2 °C 29.8in /  1008.1hPa Calm     96% 0in /  0.0mm 0 W/m2
02:31 54.9 °F /  12.7 °C 53.8 °F /  12.1 °C 29.8in /  1008.1hPa ESE 2mph /  3.2km/h 2mph /  3.2km/h 96% 0in /  0.0mm 0 W/m2
02:37 54.9 °F /  12.7 °C 53.8 °F /  12.1 °C 29.8in /  1008.1hPa Calm     96% 0in /  0.0mm 0 W/m2
02:42 54.7 °F /  12.6 °C 53.6 °F /  12 °C 29.8in /  1008.1hPa Calm   1mph /  1.6km/h 96% 0in /  0.0mm 0 W/m2
02:47 54.7 °F /  12.6 °C 53.6 °F /  12 °C 29.8in /  1008.1hPa Calm   2mph /  3.2km/h 96% 0in /  0.0mm 0 W/m2
02:52 54.5 °F /  12.5 °C 53.4 °F /  11.9 °C 29.8in /  1008.1hPa Calm     96% 0in /  0.0mm 0 W/m2
02:57 54.3 °F /  12.4 °C 53.2 °F /  11.8 °C 29.8in /  1008.1hPa Calm   2mph /  3.2km/h 96% 0in /  0.0mm 0 W/m2
02:02 54 °F /  12.2 °C 52.9 °F /  11.6 °C 29.8in /  1008.1hPa Calm     96% 0in /  0.0mm 0 W/m2
02:07 53.8 °F /  12.1 °C 52.3 °F /  11.3 °C 29.8in /  1008.1hPa Calm     95% 0in /  0.0mm 0 W/m2
02:12 53.6 °F /  12 °C 52.5 °F /  11.4 °C 29.8in /  1008.1hPa Calm     96% 0in /  0.0mm 0 W/m2
02:17 53.4 °F /  11.9 °C 52.3 °F /  11.3 °C 29.8in /  1008.1hPa Calm     96% 0in /  0.0mm 0 W/m2
02:22 53.1 °F /  11.7 °C 51.6 °F /  10.9 °C 29.8in /  1008.1hPa Calm     95% 0in /  0.0mm 0 W/m2
02:27 52.9 °F /  11.6 °C 51.8 °F /  11 °C 29.8in /  1008.1hPa Calm     96% 0in /  0.0mm 0 W/m2
02:32 52.5 °F /  11.4 °C 51.1 °F /  10.6 °C 29.8in /  1008.1hPa Calm     95% 0in /  0.0mm 0 W/m2
02:37 52.3 °F /  11.3 °C 51.3 °F /  10.7 °C 29.8in /  1008.1hPa Calm     96% 0in /  0.0mm 0 W/m2
02:42 52.3 °F /  11.3 °C 51.3 °F /  10.7 °C 29.8in /  1008.1hPa Calm     96% 0in /  0.0mm 0 W/m2
02:47 52 °F /  11.1 °C 50.5 °F /  10.3 °C 29.8in /  1008.1hPa Calm     95% 0in /  0.0mm 0 W/m2
02:52 51.6 °F /  10.9 °C 50.2 °F /  10.1 °C 29.8in /  1007.8hPa Calm     95% 0in /  0.0mm 0 W/m2
02:57 51.4 °F /  10.8 °C 50.4 °F /  10.2 °C 29.8in /  1008.1hPa Calm     96% 0in /  0.0mm 0 W/m2
03:07 51.3 °F /  10.7 °C 50.2 °F /  10.1 °C 29.8in /  1008.1hPa Calm     96% 0in /  0.0mm 0 W/m2
03:12 51.1 °F /  10.6 °C 50 °F /  10 °C 29.8in /  1008.1hPa Calm     96% 0in /  0.0mm 0 W/m2
03:17 51.1 °F /  10.6 °C 50 °F /  10 °C 29.8in /  1008.1hPa Calm     96% 0in /  0.0mm 0 W/m2
03:22 50.9 °F /  10.5 °C 49.8 °F /  9.9 °C 29.8in /  1008.1hPa Calm     96% 0in /  0.0mm 0 W/m2
03:27 50.7 °F /  10.4 °C 49.6 °F /  9.8 °C 29.8in /  1008.1hPa Calm     96% 0in /  0.0mm 0 W/m2
03:32 50.7 °F /  10.4 °C 49.6 °F /  9.8 °C 29.8in /  1008.1hPa Calm     96% 0in /  0.0mm 0 W/m2
03:42 50.4 °F /  10.2 °C 49.3 °F /  9.6 °C 29.8in /  1008.1hPa Calm     96% 0in /  0.0mm 0 W/m2
03:47 50.4 °F /  10.2 °C 49.3 °F /  9.6 °C 29.8in /  1008.1hPa Calm     96% 0in /  0.0mm 0 W/m2
03:52 50.2 °F /  10.1 °C 49.1 °F /  9.5 °C 29.8in /  1008.1hPa Calm     96% 0in /  0.0mm 0 W/m2
03:57 50.2 °F /  10.1 °C 49.1 °F /  9.5 °C 29.8in /  1008.1hPa Calm     96% 0in /  0.0mm 0 W/m2
04:02 50.2 °F /  10.1 °C 49.1 °F /  9.5 °C 29.8in /  1008.1hPa Calm     96% 0in /  0.0mm 0 W/m2
04:07 50.2 °F /  10.1 °C 49.1 °F /  9.5 °C 29.8in /  1008.1hPa Calm     96% 0in /  0.0mm 0 W/m2
04:12 50 °F /  10 °C 48.9 °F /  9.4 °C 29.8in /  1008.1hPa Calm     96% 0in /  0.0mm 0 W/m2
04:17 50 °F /  10 °C 48.9 °F /  9.4 °C 29.8in /  1007.8hPa Calm     96% 0in /  0.0mm 0 W/m2
04:26 49.8 °F /  9.9 °C 48.7 °F /  9.3 °C 29.8in /  1007.8hPa Calm     96% 0in /  0.0mm 0 W/m2
04:31 49.8 °F /  9.9 °C 48.7 °F /  9.3 °C 29.8in /  1007.8hPa Calm     96% 0in /  0.0mm 0 W/m2
04:36 49.8 °F /  9.9 °C 48.7 °F /  9.3 °C 29.8in /  1007.8hPa Calm     96% 0in /  0.0mm 0 W/m2
04:41 49.6 °F /  9.8 °C 48.6 °F /  9.2 °C 29.8in /  1007.8hPa Calm     96% 0in /  0.0mm 0 W/m2
04:46 49.6 °F /  9.8 °C 48.6 °F /  9.2 °C 29.8in /  1007.8hPa Calm     96% 0in /  0.0mm 0 W/m2
04:51 49.6 °F /  9.8 °C 48.6 °F /  9.2 °C 29.8in /  1007.8hPa Calm     96% 0in /  0.0mm 0 W/m2
04:56 49.6 °F /  9.8 °C 48.6 °F /  9.2 °C 29.8in /  1007.8hPa Calm     96% 0in /  0.0mm 0 W/m2
05:01 49.8 °F /  9.9 °C 48.9 °F /  9.4 °C 29.8in /  1007.8hPa Calm     97% 0in /  0.0mm 0 W/m2
05:06 49.8 °F /  9.9 °C 48.9 °F /  9.4 °C 29.8in /  1007.8hPa Calm     97% 0in /  0.0mm 0 W/m2
05:11 49.8 °F /  9.9 °C 48.9 °F /  9.4 °C 29.8in /  1007.8hPa Calm     97% 0in /  0.0mm 0 W/m2
05:16 49.8 °F /  9.9 °C 48.9 °F /  9.4 °C 29.8in /  1007.8hPa Calm     97% 0in /  0.0mm 0 W/m2
05:21 49.8 °F /  9.9 °C 48.9 °F /  9.4 °C 29.8in /  1007.8hPa Calm     97% 0in /  0.0mm 0 W/m2
05:26 50 °F /  10 °C 49.1 °F /  9.5 °C 29.8in /  1007.5hPa Calm     97% 0in /  0.0mm 0 W/m2
05:31 50 °F /  10 °C 49.1 °F /  9.5 °C 29.8in /  1007.5hPa Calm     97% 0in /  0.0mm 0 W/m2
05:36 50 °F /  10 °C 49.1 °F /  9.5 °C 29.8in /  1007.8hPa Calm     97% 0in /  0.0mm 0 W/m2
05:41 50.2 °F /  10.1 °C 49.3 °F /  9.6 °C 29.8in /  1007.8hPa Calm     97% 0in /  0.0mm 0 W/m2
05:46 50.2 °F /  10.1 °C 49.3 °F /  9.6 °C 29.8in /  1007.5hPa Calm     97% 0in /  0.0mm 0 W/m2
05:51 50.2 °F /  10.1 °C 49.3 °F /  9.6 °C 29.8in /  1007.5hPa Calm     97% 0in /  0.0mm 0 W/m2
05:56 50.2 °F /  10.1 °C 49.3 °F /  9.6 °C 29.8in /  1007.5hPa Calm     97% 0in /  0.0mm 0 W/m2
06:01 50.4 °F /  10.2 °C 49.5 °F /  9.7 °C 29.8in /  1007.5hPa Calm     97% 0in /  0.0mm 0 W/m2
06:06 50.4 °F /  10.2 °C 49.5 °F /  9.7 °C 29.8in /  1007.5hPa Calm     97% 0in /  0.0mm 0 W/m2
06:11 50.5 °F /  10.3 °C 49.6 °F /  9.8 °C 29.8in /  1007.5hPa Calm     97% 0in /  0.0mm 0 W/m2
06:16 50.5 °F /  10.3 °C 49.6 °F /  9.8 °C 29.8in /  1007.5hPa Calm     97% 0in /  0.0mm 0 W/m2
06:21 50.5 °F /  10.3 °C 49.6 °F /  9.8 °C 29.7in /  1007.1hPa Calm     97% 0in /  0.0mm 0 W/m2
06:26 50.7 °F /  10.4 °C 49.8 °F /  9.9 °C 29.7in /  1007.1hPa Calm     97% 0in /  0.0mm 0 W/m2
06:31 50.7 °F /  10.4 °C 49.8 °F /  9.9 °C 29.7in /  1007.1hPa Calm     97% 0in /  0.0mm 0 W/m2
06:36 50.7 °F /  10.4 °C 49.8 °F /  9.9 °C 29.7in /  1007.1hPa Calm     97% 0in /  0.0mm 0 W/m2
06:41 50.7 °F /  10.4 °C 49.8 °F /  9.9 °C 29.7in /  1007.1hPa Calm     97% 0in /  0.0mm 0 W/m2
06:46 50.7 °F /  10.4 °C 49.8 °F /  9.9 °C 29.7in /  1007.1hPa Calm     97% 0in /  0.0mm 0 W/m2
06:51 50.7 °F /  10.4 °C 49.8 °F /  9.9 °C 29.7in /  1007.1hPa Calm     97% 0in /  0.0mm 0 W/m2
06:56 50.7 °F /  10.4 °C 49.8 °F /  9.9 °C 29.7in /  1006.8hPa Calm     97% 0in /  0.0mm 0 W/m2
07:01 50.9 °F /  10.5 °C 50 °F /  10 °C 29.7in /  1006.8hPa Calm     97% 0in /  0.0mm 0 W/m2
07:06 50.9 °F /  10.5 °C 50 °F /  10 °C 29.7in /  1006.8hPa Calm     97% 0in /  0.0mm 0 W/m2
07:11 51.1 °F /  10.6 °C 50.2 °F /  10.1 °C 29.7in /  1006.8hPa Calm     97% 0in /  0.0mm 0 W/m2
07:16 51.1 °F /  10.6 °C 50.2 °F /  10.1 °C 29.7in /  1006.4hPa Calm     97% 0in /  0.0mm 0 W/m2
07:21 51.3 °F /  10.7 °C 50.4 °F /  10.2 °C 29.7in /  1006.4hPa NE 0.9mph /  1.4km/h 3mph /  4.8km/h 97% 0in /  0.0mm 0 W/m2
07:26 51.4 °F /  10.8 °C 50.5 °F /  10.3 °C 29.7in /  1006.4hPa Calm   1mph /  1.6km/h 97% 0in /  0.0mm 0 W/m2
07:31 51.4 °F /  10.8 °C 50.5 °F /  10.3 °C 29.7in /  1006.4hPa Calm   3mph /  4.8km/h 97% 0in /  0.0mm 0 W/m2
07:36 51.4 °F /  10.8 °C 50.5 °F /  10.3 °C 29.7in /  1006.4hPa Calm   1mph /  1.6km/h 97% 0in /  0.0mm 0 W/m2
07:41 51.3 °F /  10.7 °C 50.4 °F /  10.2 °C 29.7in /  1006.4hPa Calm     97% 0in /  0.0mm 5 W/m2
07:46 51.3 °F /  10.7 °C 50.4 °F /  10.2 °C 29.7in /  1006.4hPa Calm     97% 0in /  0.0mm 11 W/m2
07:51 51.3 °F /  10.7 °C 50.4 °F /  10.2 °C 29.7in /  1006.4hPa Calm     97% 0in /  0.0mm 14 W/m2
07:56 51.3 °F /  10.7 °C 50.4 °F /  10.2 °C 29.7in /  1006.4hPa Calm     97% 0in /  0.0mm 16 W/m2
08:01 51.4 °F /  10.8 °C 50.5 °F /  10.3 °C 29.7in /  1006.4hPa Calm     97% 0in /  0.0mm 16 W/m2
08:06 51.4 °F /  10.8 °C 50.5 °F /  10.3 °C 29.7in /  1006.1hPa Calm   1mph /  1.6km/h 97% 0in /  0.0mm 28 W/m2
08:11 51.6 °F /  10.9 °C 50.7 °F /  10.4 °C 29.7in /  1006.1hPa Calm     97% 0in /  0.0mm 23 W/m2
08:16 51.6 °F /  10.9 °C 50.7 °F /  10.4 °C 29.7in /  1006.1hPa Calm     97% 0in /  0.0mm 18 W/m2
08:21 51.8 °F /  11 °C 50.9 °F /  10.5 °C 29.7in /  1006.1hPa Calm     97% 0in /  0.0mm 19 W/m2
08:26 52 °F /  11.1 °C 51.1 °F /  10.6 °C 29.7in /  1006.1hPa Calm     97% 0in /  0.0mm 25 W/m2
08:32 52.2 °F /  11.2 °C 51.3 °F /  10.7 °C 29.7in /  1006.1hPa Calm   2mph /  3.2km/h 97% 0in /  0.0mm 28 W/m2
08:37 52.3 °F /  11.3 °C 51.4 °F /  10.8 °C 29.7in /  1006.1hPa Calm     97% 0in /  0.0mm 28 W/m2
08:42 52.5 °F /  11.4 °C 51.6 °F /  10.9 °C 29.7in /  1005.8hPa Calm     97% 0in /  0.0mm 30 W/m2
08:47 53.1 °F /  11.7 °C 52.2 °F /  11.2 °C 29.7in /  1006.1hPa East 2mph /  3.2km/h 3mph /  4.8km/h 97% 0in /  0.0mm 40 W/m2
08:52 53.8 °F /  12.1 °C 53.2 °F /  11.8 °C 29.7in /  1005.8hPa NE 2mph /  3.2km/h 4mph /  6.4km/h 98% 0in /  0.0mm 49 W/m2
08:57 54.1 °F /  12.3 °C 53.6 °F /  12 °C 29.7in /  1005.8hPa ESE 0.9mph /  1.4km/h 4mph /  6.4km/h 98% 0in /  0.0mm 60 W/m2
09:02 54.5 °F /  12.5 °C 54 °F /  12.2 °C 29.7in /  1005.8hPa ENE 0.9mph /  1.4km/h 5mph /  8km/h 98% 0in /  0.0mm 54 W/m2
09:07 54.9 °F /  12.7 °C 54.3 °F /  12.4 °C 29.7in /  1005.8hPa ESE 2mph /  3.2km/h 3mph /  4.8km/h 98% 0in /  0.0mm 84 W/m2
09:12 55 °F /  12.8 °C 54.5 °F /  12.5 °C 29.7in /  1005.8hPa SE 2.9mph /  4.7km/h 8mph /  12.9km/h 98% 0in /  0.0mm 81 W/m2
09:17 55 °F /  12.8 °C 54.5 °F /  12.5 °C 29.7in /  1005.8hPa ENE 4mph /  6.4km/h 8mph /  12.9km/h 98% 0in /  0.0mm 95 W/m2
09:22 55.2 °F /  12.9 °C 54.7 °F /  12.6 °C 29.7in /  1005.4hPa East 2.9mph /  4.7km/h 10mph /  16.1km/h 98% 0in /  0.0mm 118 W/m2
09:27 55.4 °F /  13 °C 54.9 °F /  12.7 °C 29.7in /  1005.4hPa NNE 4.9mph /  7.9km/h 11mph /  17.7km/h 98% 0in /  0.0mm 93 W/m2
09:32 55.6 °F /  13.1 °C 55 °F /  12.8 °C 29.7in /  1005.4hPa ENE 4.9mph /  7.9km/h 6mph /  9.7km/h 98% 0in /  0.0mm 97 W/m2
09:37 55.8 °F /  13.2 °C 54.9 °F /  12.7 °C 29.7in /  1005.4hPa East 0.9mph /  1.4km/h 11mph /  17.7km/h 97% 0in /  0.0mm 63 W/m2
09:42 55.8 °F /  13.2 °C 54.9 °F /  12.7 °C 29.7in /  1005.4hPa East 4mph /  6.4km/h 4mph /  6.4km/h 97% 0in /  0.0mm 47 W/m2
09:47 55.9 °F /  13.3 °C 55 °F /  12.8 °C 29.7in /  1005.4hPa ESE 2.9mph /  4.7km/h 10mph /  16.1km/h 97% 0in /  0.0mm 42 W/m2
09:52 55.9 °F /  13.3 °C 55 °F /  12.8 °C 29.7in /  1005.4hPa East 2.9mph /  4.7km/h 8mph /  12.9km/h 97% 0in /  0.0mm 44 W/m2
09:57 56.1 °F /  13.4 °C 55.2 °F /  12.9 °C 29.7in /  1005.1hPa NE 2.9mph /  4.7km/h 10mph /  16.1km/h 97% 0in /  0.0mm 42 W/m2
10:02 56.1 °F /  13.4 °C 55.2 °F /  12.9 °C 29.7in /  1005.1hPa NE 2mph /  3.2km/h 5mph /  8km/h 97% 0in /  0.0mm 65 W/m2
10:07 56.5 °F /  13.6 °C 55.6 °F /  13.1 °C 29.7in /  1004.7hPa ENE 2.9mph /  4.7km/h 10mph /  16.1km/h 97% 0in /  0.0mm 90 W/m2
10:12 56.7 °F /  13.7 °C 55.8 °F /  13.2 °C 29.7in /  1004.7hPa NE 2.9mph /  4.7km/h 5mph /  8km/h 97% 0in /  0.0mm 81 W/m2
10:17 56.8 °F /  13.8 °C 55.8 °F /  13.2 °C 29.7in /  1004.7hPa East 2.9mph /  4.7km/h 7mph /  11.3km/h 96% 0in /  0.0mm 83 W/m2
10:37 57.6 °F /  14.2 °C 56.5 °F /  13.6 °C 29.7in /  1004.4hPa ESE 2.9mph /  4.7km/h 9mph /  14.5km/h 96% 0in /  0.0mm 100 W/m2
10:42 57.7 °F /  14.3 °C 56.3 °F /  13.5 °C 29.7in /  1004.4hPa ESE 4mph /  6.4km/h 6mph /  9.7km/h 95% 0in /  0.0mm 65 W/m2
10:47 57.9 °F /  14.4 °C 56.5 °F /  13.6 °C 29.7in /  1004.4hPa East 0.9mph /  1.4km/h 2mph /  3.2km/h 95% 0in /  0.0mm 63 W/m2
10:52 57.9 °F /  14.4 °C 56.5 °F /  13.6 °C 29.7in /  1004.4hPa Calm   4mph /  6.4km/h 95% 0in /  0.0mm 104 W/m2
10:57 58.3 °F /  14.6 °C 56.8 °F /  13.8 °C 29.7in /  1004.4hPa NE 2.9mph /  4.7km/h 6mph /  9.7km/h 95% 0in /  0.0mm 84 W/m2
11:02 58.3 °F /  14.6 °C 56.5 °F /  13.6 °C 29.7in /  1004.4hPa NE 2.9mph /  4.7km/h 3mph /  4.8km/h 94% 0in /  0.0mm 90 W/m2
11:07 58.5 °F /  14.7 °C 56.7 °F /  13.7 °C 29.7in /  1004.1hPa East 0.9mph /  1.4km/h 2mph /  3.2km/h 94% 0in /  0.0mm 139 W/m2
11:12 58.6 °F /  14.8 °C 56.8 °F /  13.8 °C 29.7in /  1004.1hPa East 2.9mph /  4.7km/h 6mph /  9.7km/h 94% 0in /  0.0mm 149 W/m2
11:17 58.8 °F /  14.9 °C 57 °F /  13.9 °C 29.7in /  1004.1hPa East 6mph /  9.7km/h 7mph /  11.3km/h 94% 0in /  0.0mm 155 W/m2
11:22 59.2 °F /  15.1 °C 57.2 °F /  14 °C 29.7in /  1004.1hPa ESE 2mph /  3.2km/h 5mph /  8km/h 93% 0in /  0.0mm 160 W/m2
11:27 59.4 °F /  15.2 °C 57.4 °F /  14.1 °C 29.6in /  1003.7hPa SSE 0.9mph /  1.4km/h 7mph /  11.3km/h 93% 0in /  0.0mm 132 W/m2
11:32 59.5 °F /  15.3 °C 57.6 °F /  14.2 °C 29.6in /  1003.7hPa East 2.9mph /  4.7km/h 7mph /  11.3km/h 93% 0in /  0.0mm 93 W/m2
11:37 59.5 °F /  15.3 °C 57.2 °F /  14 °C 29.6in /  1003.7hPa ENE 4mph /  6.4km/h 7mph /  11.3km/h 92% 0in /  0.0mm 67 W/m2
11:42 59.5 °F /  15.3 °C 57.2 °F /  14 °C 29.6in /  1003.7hPa North 2.9mph /  4.7km/h 8mph /  12.9km/h 92% 0in /  0.0mm 95 W/m2
11:47 59.7 °F /  15.4 °C 57.4 °F /  14.1 °C 29.6in /  1003.7hPa NE 2mph /  3.2km/h 3mph /  4.8km/h 92% 0in /  0.0mm 149 W/m2
11:52 59.9 °F /  15.5 °C 57.6 °F /  14.2 °C 29.6in /  1003.7hPa East 2.9mph /  4.7km/h 9mph /  14.5km/h 92% 0in /  0.0mm 144 W/m2
11:57 60.1 °F /  15.6 °C 57.7 °F /  14.3 °C 29.6in /  1003.4hPa NE 2.9mph /  4.7km/h 10mph /  16.1km/h 92% 0in /  0.0mm 132 W/m2
12:02 60.3 °F /  15.7 °C 57.6 °F /  14.2 °C 29.6in /  1003.4hPa ENE 2mph /  3.2km/h 6mph /  9.7km/h 91% 0in /  0.0mm 128 W/m2
12:07 60.4 °F /  15.8 °C 57.7 °F /  14.3 °C 29.6in /  1003.4hPa East 4mph /  6.4km/h 10mph /  16.1km/h 91% 0in /  0.0mm 200 W/m2
12:12 60.6 °F /  15.9 °C 57.9 °F /  14.4 °C 29.6in /  1003.0hPa ESE 2mph /  3.2km/h 7mph /  11.3km/h 91% 0in /  0.0mm 209 W/m2
12:17 60.8 °F /  16 °C 57.9 °F /  14.4 °C 29.6in /  1003.0hPa NE 2mph /  3.2km/h 7mph /  11.3km/h 90% 0in /  0.0mm 199 W/m2
12:22 61 °F /  16.1 °C 58.1 °F /  14.5 °C 29.6in /  1003.0hPa ENE 2mph /  3.2km/h 7mph /  11.3km/h 90% 0in /  0.0mm 206 W/m2
12:27 61.2 °F /  16.2 °C 57.9 °F /  14.4 °C 29.6in /  1003.0hPa ENE 4mph /  6.4km/h 14mph /  22.5km/h 89% 0in /  0.0mm 169 W/m2
12:32 61.2 °F /  16.2 °C 57.9 °F /  14.4 °C 29.6in /  1003.0hPa ENE 0.9mph /  1.4km/h 9mph /  14.5km/h 89% 0in /  0.0mm 216 W/m2
12:37 61.3 °F /  16.3 °C 58.1 °F /  14.5 °C 29.6in /  1002.7hPa East 2mph /  3.2km/h 9mph /  14.5km/h 89% 0in /  0.0mm 135 W/m2
12:42 61.2 °F /  16.2 °C 57.6 °F /  14.2 °C 29.6in /  1002.7hPa East 6.9mph /  11.1km/h 9mph /  14.5km/h 88% 0in /  0.0mm 190 W/m2
12:47 61.3 °F /  16.3 °C 57.7 °F /  14.3 °C 29.6in /  1002.7hPa SE 4mph /  6.4km/h 8mph /  12.9km/h 88% 0in /  0.0mm 153 W/m2
12:52 61.3 °F /  16.3 °C 57.7 °F /  14.3 °C 29.6in /  1002.4hPa ESE 2mph /  3.2km/h 7mph /  11.3km/h 88% 0in /  0.0mm 156 W/m2
12:57 61.5 °F /  16.4 °C 57.9 °F /  14.4 °C 29.6in /  1002.4hPa NE 4.9mph /  7.9km/h 6mph /  9.7km/h 88% 0in /  0.0mm 188 W/m2
13:02 61.5 °F /  16.4 °C 57.9 °F /  14.4 °C 29.6in /  1002.4hPa ESE 2.9mph /  4.7km/h 7mph /  11.3km/h 88% 0in /  0.0mm 167 W/m2
13:07 61.9 °F /  16.6 °C 58.3 °F /  14.6 °C 29.6in /  1002.0hPa East 4mph /  6.4km/h 5mph /  8km/h 88% 0in /  0.0mm 213 W/m2
13:12 62.1 °F /  16.7 °C 58.1 °F /  14.5 °C 29.6in /  1002.0hPa SSE 4.9mph /  7.9km/h 8mph /  12.9km/h 87% 0in /  0.0mm 179 W/m2
13:17 62.2 °F /  16.8 °C 58.3 °F /  14.6 °C 29.6in /  1001.7hPa SSE 2mph /  3.2km/h 8mph /  12.9km/h 87% 0in /  0.0mm 160 W/m2
13:23 62.4 °F /  16.9 °C 58.5 °F /  14.7 °C 29.6in /  1001.7hPa East 4mph /  6.4km/h 6mph /  9.7km/h 87% 0in /  0.0mm 123 W/m2
13:28 62.4 °F /  16.9 °C 58.1 °F /  14.5 °C 29.6in /  1001.7hPa SSW 2mph /  3.2km/h 9mph /  14.5km/h 86% 0in /  0.0mm 91 W/m2
13:33 62.4 °F /  16.9 °C 58.1 °F /  14.5 °C 29.6in /  1001.7hPa East 2.9mph /  4.7km/h 7mph /  11.3km/h 86% 0in /  0.0mm 105 W/m2
13:38 62.4 °F /  16.9 °C 58.1 °F /  14.5 °C 29.6in /  1001.7hPa Calm   2mph /  3.2km/h 86% 0in /  0.0mm 76 W/m2
13:43 62.4 °F /  16.9 °C 58.1 °F /  14.5 °C 29.6in /  1001.7hPa East 2.9mph /  4.7km/h 5mph /  8km/h 86% 0in /  0.0mm 83 W/m2
13:48 62.4 °F /  16.9 °C 58.1 °F /  14.5 °C 29.6in /  1001.4hPa ENE 2.9mph /  4.7km/h 4mph /  6.4km/h 86% 0in /  0.0mm 77 W/m2
13:53 62.4 °F /  16.9 °C 58.5 °F /  14.7 °C 29.6in /  1001.4hPa East 2mph /  3.2km/h 4mph /  6.4km/h 87% 0in /  0.0mm 105 W/m2
13:58 62.4 °F /  16.9 °C 58.1 °F /  14.5 °C 29.6in /  1001.4hPa ENE 4mph /  6.4km/h 7mph /  11.3km/h 86% 0in /  0.0mm 153 W/m2
14:03 62.8 °F /  17.1 °C 58.5 °F /  14.7 °C 29.6in /  1001.4hPa East 2mph /  3.2km/h 3mph /  4.8km/h 86% 0in /  0.0mm 158 W/m2
14:08 63 °F /  17.2 °C 58.6 °F /  14.8 °C 29.6in /  1001.0hPa ENE 2.9mph /  4.7km/h 6mph /  9.7km/h 86% 0in /  0.0mm 111 W/m2
14:13 63 °F /  17.2 °C 58.6 °F /  14.8 °C 29.6in /  1001.0hPa ENE 4mph /  6.4km/h 4mph /  6.4km/h 86% 0in /  0.0mm 86 W/m2
14:18 63.1 °F /  17.3 °C 58.6 °F /  14.8 °C 29.6in /  1001.0hPa NE 4mph /  6.4km/h 5mph /  8km/h 85% 0in /  0.0mm 98 W/m2
14:23 63.3 °F /  17.4 °C 58.8 °F /  14.9 °C 29.6in /  1001.0hPa East 2.9mph /  4.7km/h 8mph /  12.9km/h 85% 0in /  0.0mm 107 W/m2
14:28 63.5 °F /  17.5 °C 58.6 °F /  14.8 °C 29.6in /  1000.7hPa ESE 2.9mph /  4.7km/h 9mph /  14.5km/h 84% 0in /  0.0mm 90 W/m2
14:33 63.7 °F /  17.6 °C 58.8 °F /  14.9 °C 29.6in /  1000.7hPa ENE 2mph /  3.2km/h 7mph /  11.3km/h 84% 0in /  0.0mm 49 W/m2
14:38 63.9 °F /  17.7 °C 59 °F /  15 °C 29.6in /  1000.7hPa North 0.9mph /  1.4km/h 5mph /  8km/h 84% 0in /  0.0mm 35 W/m2
14:43 63.7 °F /  17.6 °C 58.5 °F /  14.7 °C 29.5in /  1000.3hPa NE 6mph /  9.7km/h 6mph /  9.7km/h 83% 0in /  0.0mm 33 W/m2
14:48 63.9 °F /  17.7 °C 58.3 °F /  14.6 °C 29.5in /  1000.3hPa ENE 0.9mph /  1.4km/h 4mph /  6.4km/h 82% 0in /  0.0mm 37 W/m2
14:53 63.9 °F /  17.7 °C 58.3 °F /  14.6 °C 29.5in /  1000.3hPa ENE 4.9mph /  7.9km/h 7mph /  11.3km/h 82% 0in /  0.0mm 53 W/m2
14:58 63.9 °F /  17.7 °C 57.9 °F /  14.4 °C 29.5in /  1000.3hPa East 6.9mph /  11.1km/h 7mph /  11.3km/h 81% 0in /  0.0mm 86 W/m2
15:03 64 °F /  17.8 °C 58.1 °F /  14.5 °C 29.5in /  1000.3hPa ENE 4mph /  6.4km/h 7mph /  11.3km/h 81% 0in /  0.0mm 83 W/m2
15:08 64 °F /  17.8 °C 58.1 °F /  14.5 °C 29.5in /  1000.3hPa NW 2mph /  3.2km/h 3mph /  4.8km/h 81% 0in /  0.0mm 98 W/m2
15:13 64 °F /  17.8 °C 58.1 °F /  14.5 °C 29.5in /  1000.3hPa ENE 2.9mph /  4.7km/h 3mph /  4.8km/h 81% 0in /  0.0mm 105 W/m2
15:18 64.2 °F /  17.9 °C 58.3 °F /  14.6 °C 29.5in /  1000.3hPa ENE 2.9mph /  4.7km/h 3mph /  4.8km/h 81% 0in /  0.0mm 109 W/m2
15:23 64.2 °F /  17.9 °C 58.3 °F /  14.6 °C 29.5in /  1000.3hPa ENE 2mph /  3.2km/h 5mph /  8km/h 81% 0in /  0.0mm 107 W/m2
15:28 64.4 °F /  18 °C 58.5 °F /  14.7 °C 29.5in /  1000.0hPa East 4mph /  6.4km/h 8mph /  12.9km/h 81% 0in /  0.0mm 118 W/m2
15:33 64.4 °F /  18 °C 58.5 °F /  14.7 °C 29.5in /  1000.0hPa NE 2mph /  3.2km/h 4mph /  6.4km/h 81% 0in /  0.0mm 107 W/m2
15:38 64.6 °F /  18.1 °C 58.3 °F /  14.6 °C 29.5in /  1000.0hPa East 4mph /  6.4km/h 7mph /  11.3km/h 80% 0in /  0.0mm 93 W/m2
15:43 64.6 °F /  18.1 °C 58.3 °F /  14.6 °C 29.5in /  1000.0hPa NE 2.9mph /  4.7km/h 4mph /  6.4km/h 80% 0in /  0.0mm 83 W/m2
15:48 64.6 °F /  18.1 °C 58.3 °F /  14.6 °C 29.5in /  1000.0hPa East 4mph /  6.4km/h 9mph /  14.5km/h 80% 0in /  0.0mm 88 W/m2
15:53 64.6 °F /  18.1 °C 58.3 °F /  14.6 °C 29.5in /  1000.0hPa ENE 2.9mph /  4.7km/h 3mph /  4.8km/h 80% 0in /  0.0mm 84 W/m2
15:58 64.4 °F /  18 °C 58.1 °F /  14.5 °C 29.5in /  1000.0hPa NE 2mph /  3.2km/h 5mph /  8km/h 80% 0in /  0.0mm 77 W/m2
16:03 64.4 °F /  18 °C 58.1 °F /  14.5 °C 29.5in /  1000.0hPa ENE 2.9mph /  4.7km/h 4mph /  6.4km/h 80% 0in /  0.0mm 70 W/m2
16:08 64.4 °F /  18 °C 58.1 °F /  14.5 °C 29.5in /  1000.0hPa ENE 0.9mph /  1.4km/h 3mph /  4.8km/h 80% 0in /  0.0mm 65 W/m2
16:13 64.2 °F /  17.9 °C 57.9 °F /  14.4 °C 29.5in /  999.7hPa ENE 2.9mph /  4.7km/h 6mph /  9.7km/h 80% 0in /  0.0mm 60 W/m2
16:18 64.2 °F /  17.9 °C 57.9 °F /  14.4 °C 29.5in /  999.7hPa East 2.9mph /  4.7km/h 7mph /  11.3km/h 80% 0in /  0.0mm 53 W/m2
16:23 64.2 °F /  17.9 °C 57.9 °F /  14.4 °C 29.5in /  999.7hPa ENE 2mph /  3.2km/h 8mph /  12.9km/h 80% 0in /  0.0mm 47 W/m2
16:28 64.2 °F /  17.9 °C 57.9 °F /  14.4 °C 29.5in /  999.7hPa NNW 2.9mph /  4.7km/h 5mph /  8km/h 80% 0in /  0.0mm 42 W/m2
16:33 64 °F /  17.8 °C 57.7 °F /  14.3 °C 29.5in /  999.7hPa ENE 2mph /  3.2km/h 5mph /  8km/h 80% 0in /  0.0mm 37 W/m2
16:38 63.9 °F /  17.7 °C 57.6 °F /  14.2 °C 29.5in /  999.7hPa East 0.9mph /  1.4km/h 8mph /  12.9km/h 80% 0in /  0.0mm 32 W/m2
16:43 63.7 °F /  17.6 °C 57.7 °F /  14.3 °C 29.5in /  999.7hPa NE 0.9mph /  1.4km/h 4mph /  6.4km/h 81% 0in /  0.0mm 26 W/m2
16:48 63.5 °F /  17.5 °C 57.6 °F /  14.2 °C 29.5in /  999.7hPa ESE 4mph /  6.4km/h 7mph /  11.3km/h 81% 0in /  0.0mm 21 W/m2
16:53 63.3 °F /  17.4 °C 57.4 °F /  14.1 °C 29.5in /  999.7hPa Calm   6mph /  9.7km/h 81% 0in /  0.0mm 18 W/m2
16:58 63.3 °F /  17.4 °C 57.4 °F /  14.1 °C 29.5in /  999.7hPa ENE 2mph /  3.2km/h 5mph /  8km/h 81% 0in /  0.0mm 12 W/m2
17:03 63.3 °F /  17.4 °C 57.4 °F /  14.1 °C 29.5in /  999.7hPa ENE 6mph /  9.7km/h 6mph /  9.7km/h 81% 0in /  0.0mm 7 W/m2
17:08 63.3 °F /  17.4 °C 57.4 °F /  14.1 °C 29.5in /  999.7hPa East 0.9mph /  1.4km/h 6mph /  9.7km/h 81% 0in /  0.0mm 5 W/m2
17:13 63.1 °F /  17.3 °C 57.6 °F /  14.2 °C 29.5in /  999.3hPa NNE 2.9mph /  4.7km/h 3mph /  4.8km/h 82% 0in /  0.0mm 0 W/m2
17:18 63.1 °F /  17.3 °C 57.6 °F /  14.2 °C 29.5in /  999.3hPa ENE 2mph /  3.2km/h 12mph /  19.3km/h 82% 0in /  0.0mm 0 W/m2
17:23 63.1 °F /  17.3 °C 57.6 °F /  14.2 °C 29.5in /  999.3hPa East 6.9mph /  11.1km/h 8mph /  12.9km/h 82% 0in /  0.0mm 0 W/m2
17:28 63.1 °F /  17.3 °C 57.6 °F /  14.2 °C 29.5in /  999.0hPa NE 2.9mph /  4.7km/h 9mph /  14.5km/h 82% 0in /  0.0mm 0 W/m2
17:33 63.1 °F /  17.3 °C 57.6 °F /  14.2 °C 29.5in /  999.0hPa NE 0.9mph /  1.4km/h 6mph /  9.7km/h 82% 0in /  0.0mm 0 W/m2
17:38 63.1 °F /  17.3 °C 57.6 °F /  14.2 °C 29.5in /  999.0hPa East 2mph /  3.2km/h 8mph /  12.9km/h 82% 0in /  0.0mm 0 W/m2
17:43 63.1 °F /  17.3 °C 57.6 °F /  14.2 °C 29.5in /  999.0hPa ENE 2.9mph /  4.7km/h 4mph /  6.4km/h 82% 0in /  0.0mm 0 W/m2
17:48 63.3 °F /  17.4 °C 57.7 °F /  14.3 °C 29.5in /  999.3hPa NE 2.9mph /  4.7km/h 5mph /  8km/h 82% 0in /  0.0mm 0 W/m2
17:53 63.3 °F /  17.4 °C 57.4 °F /  14.1 °C 29.5in /  999.0hPa NNE 2mph /  3.2km/h 7mph /  11.3km/h 81% 0in /  0.0mm 0 W/m2
17:58 63.3 °F /  17.4 °C 57.7 °F /  14.3 °C 29.5in /  999.0hPa NE 0.9mph /  1.4km/h 5mph /  8km/h 82% 0in /  0.0mm 0 W/m2
18:03 63.3 °F /  17.4 °C 57.7 °F /  14.3 °C 29.5in /  999.0hPa Calm   7mph /  11.3km/h 82% 0in /  0.0mm 0 W/m2
18:21 63.1 °F /  17.3 °C 57.6 °F /  14.2 °C 29.5in /  998.6hPa North 2mph /  3.2km/h 4mph /  6.4km/h 82% 0in /  0.0mm 0 W/m2
18:26 63.1 °F /  17.3 °C 57.6 °F /  14.2 °C 29.5in /  998.6hPa North 2mph /  3.2km/h 9mph /  14.5km/h 82% 0in /  0.0mm 0 W/m2
18:31 63.1 °F /  17.3 °C 57.6 °F /  14.2 °C 29.5in /  998.6hPa ENE 4mph /  6.4km/h 6mph /  9.7km/h 82% 0in /  0.0mm 0 W/m2
18:36 63.1 °F /  17.3 °C 57.6 °F /  14.2 °C 29.5in /  998.6hPa East 2.9mph /  4.7km/h 5mph /  8km/h 82% 0in /  0.0mm 0 W/m2
18:41 63.1 °F /  17.3 °C 57.6 °F /  14.2 °C 29.5in /  998.3hPa NE 4mph /  6.4km/h 7mph /  11.3km/h 82% 0in /  0.0mm 0 W/m2
18:46 63.3 °F /  17.4 °C 57.7 °F /  14.3 °C 29.5in /  998.6hPa NE 2mph /  3.2km/h 6mph /  9.7km/h 82% 0in /  0.0mm 0 W/m2
18:51 63.3 °F /  17.4 °C 57.7 °F /  14.3 °C 29.5in /  998.6hPa NE 2.9mph /  4.7km/h 5mph /  8km/h 82% 0in /  0.0mm 0 W/m2
18:56 63.3 °F /  17.4 °C 57.7 °F /  14.3 °C 29.5in /  998.3hPa NE 2mph /  3.2km/h 6mph /  9.7km/h 82% 0in /  0.0mm 0 W/m2
19:01 63.3 °F /  17.4 °C 57.7 °F /  14.3 °C 29.5in /  998.3hPa North 2.9mph /  4.7km/h 7mph /  11.3km/h 82% 0in /  0.0mm 0 W/m2
19:06 63.3 °F /  17.4 °C 57.7 °F /  14.3 °C 29.5in /  998.3hPa ENE 2.9mph /  4.7km/h 4mph /  6.4km/h 82% 0in /  0.0mm 0 W/m2
19:11 63.3 °F /  17.4 °C 57.7 °F /  14.3 °C 29.5in /  998.3hPa East 8.1mph /  13km/h 8mph /  12.9km/h 82% 0in /  0.0mm 0 W/m2
19:16 63.1 °F /  17.3 °C 57.6 °F /  14.2 °C 29.5in /  998.3hPa NE 2mph /  3.2km/h 5mph /  8km/h 82% 0in /  0.0mm 0 W/m2
19:21 63.1 °F /  17.3 °C 57.6 °F /  14.2 °C 29.5in /  998.3hPa NE 2mph /  3.2km/h 5mph /  8km/h 82% 0in /  0.0mm 0 W/m2
19:26 63.1 °F /  17.3 °C 57.9 °F /  14.4 °C 29.5in /  998.0hPa NE 4mph /  6.4km/h 7mph /  11.3km/h 83% 0in /  0.0mm 0 W/m2
19:31 63.1 °F /  17.3 °C 57.9 °F /  14.4 °C 29.5in /  998.0hPa ENE 2mph /  3.2km/h 6mph /  9.7km/h 83% 0in /  0.0mm 0 W/m2
19:36 63 °F /  17.2 °C 57.7 °F /  14.3 °C 29.5in /  998.0hPa ENE 2mph /  3.2km/h 7mph /  11.3km/h 83% 0in /  0.0mm 0 W/m2
19:41 63 °F /  17.2 °C 58.1 °F /  14.5 °C 29.5in /  998.0hPa NE 2.9mph /  4.7km/h 5mph /  8km/h 84% 0in /  0.0mm 0 W/m2
19:46 63 °F /  17.2 °C 58.1 °F /  14.5 °C 29.5in /  998.0hPa Calm   5mph /  8km/h 84% 0in /  0.0mm 0 W/m2
19:51 63 °F /  17.2 °C 58.1 °F /  14.5 °C 29.5in /  998.0hPa NE 0.9mph /  1.4km/h 2mph /  3.2km/h 84% 0in /  0.0mm 0 W/m2
19:56 62.8 °F /  17.1 °C 57.9 °F /  14.4 °C 29.5in /  998.0hPa East 8.1mph /  13km/h 10mph /  16.1km/h 84% 0in /  0.0mm 0 W/m2
20:01 63 °F /  17.2 °C 58.1 °F /  14.5 °C 29.5in /  998.0hPa ESE 2mph /  3.2km/h 8mph /  12.9km/h 84% 0in /  0.0mm 0 W/m2
20:06 63 °F /  17.2 °C 58.1 °F /  14.5 °C 29.5in /  998.0hPa NE 2mph /  3.2km/h 10mph /  16.1km/h 84% 0in /  0.0mm 0 W/m2
20:11 63 °F /  17.2 °C 57.7 °F /  14.3 °C 29.5in /  998.0hPa NNW 0.9mph /  1.4km/h 8mph /  12.9km/h 83% 0in /  0.0mm 0 W/m2
20:16 63.1 °F /  17.3 °C 57.9 °F /  14.4 °C 29.5in /  998.0hPa NE 4.9mph /  7.9km/h 5mph /  8km/h 83% 0in /  0.0mm 0 W/m2
20:21 63.3 °F /  17.4 °C 57.7 °F /  14.3 °C 29.5in /  998.0hPa ENE 4.9mph /  7.9km/h 13mph /  20.9km/h 82% 0in /  0.0mm 0 W/m2
20:26 63.5 °F /  17.5 °C 57.9 °F /  14.4 °C 29.5in /  998.0hPa WNW 0.9mph /  1.4km/h 3mph /  4.8km/h 82% 0in /  0.0mm 0 W/m2
20:32 63.7 °F /  17.6 °C 58.1 °F /  14.5 °C 29.5in /  998.0hPa NNW 2.9mph /  4.7km/h 6mph /  9.7km/h 82% 0in /  0.0mm 0 W/m2
20:37 63.7 °F /  17.6 °C 58.1 °F /  14.5 °C 29.5in /  998.0hPa Calm   3mph /  4.8km/h 82% 0in /  0.0mm 0 W/m2
20:42 63.5 °F /  17.5 °C 57.9 °F /  14.4 °C 29.5in /  998.3hPa WNW 4mph /  6.4km/h 7mph /  11.3km/h 82% 0in /  0.0mm 0 W/m2
20:47 63.1 °F /  17.3 °C 58.6 °F /  14.8 °C 29.5in /  999.3hPa WSW 15mph /  24.1km/h 16mph /  25.7km/h 85% 0.04in /  1.0mm 0 W/m2
20:52 59.5 °F /  15.3 °C 54.7 °F /  12.6 °C 29.5in /  999.7hPa WSW 15mph /  24.1km/h 17mph /  27.4km/h 84% 0.12in /  3.0mm 0 W/m2
20:57 56.8 °F /  13.8 °C 53.1 °F /  11.7 °C 29.5in /  999.7hPa WSW 4.9mph /  7.9km/h 10mph /  16.1km/h 87% 0.13in /  3.3mm 0 W/m2
21:02 55.8 °F /  13.2 °C 52.5 °F /  11.4 °C 29.5in /  999.7hPa WNW 6.9mph /  11.1km/h 16mph /  25.7km/h 89% 0.13in /  3.3mm 0 W/m2
21:07 55.2 °F /  12.9 °C 52.3 °F /  11.3 °C 29.5in /  999.7hPa WSW 4.9mph /  7.9km/h 13mph /  20.9km/h 90% 0.13in /  3.3mm 0 W/m2
21:12 55 °F /  12.8 °C 52.2 °F /  11.2 °C 29.5in /  999.3hPa WNW 8.1mph /  13km/h 16mph /  25.7km/h 90% 0.13in /  3.3mm 0 W/m2
21:17 54.9 °F /  12.7 °C 52.3 °F /  11.3 °C 29.5in /  999.3hPa West 2mph /  3.2km/h 9mph /  14.5km/h 91% 0.13in /  3.3mm 0 W/m2
21:22 54.7 °F /  12.6 °C 52.2 °F /  11.2 °C 29.5in /  999.3hPa West 4mph /  6.4km/h 9mph /  14.5km/h 91% 0.13in /  3.3mm 0 W/m2
21:27 54.7 °F /  12.6 °C 52.2 °F /  11.2 °C 29.5in /  999.7hPa WSW 4mph /  6.4km/h 8mph /  12.9km/h 91% 0.13in /  3.3mm 0 W/m2
21:32 54.7 °F /  12.6 °C 52.3 °F /  11.3 °C 29.5in /  999.7hPa West 4mph /  6.4km/h 11mph /  17.7km/h 92% 0.13in /  3.3mm 0 W/m2
21:37 54.9 °F /  12.7 °C 52.3 °F /  11.3 °C 29.5in /  999.7hPa West 2.9mph /  4.7km/h 10mph /  16.1km/h 91% 0.13in /  3.3mm 0 W/m2
21:42 54.7 °F /  12.6 °C 52.2 °F /  11.2 °C 29.6in /  1000.7hPa West 6mph /  9.7km/h 7mph /  11.3km/h 91% 0.13in /  3.3mm 0 W/m2
21:47 54.7 °F /  12.6 °C 52.2 °F /  11.2 °C 29.6in /  1000.7hPa WNW 6.9mph /  11.1km/h 8mph /  12.9km/h 91% 0.12in /  3.0mm 0 W/m2
21:52 54.3 °F /  12.4 °C 51.8 °F /  11 °C 29.6in /  1000.7hPa NW 2mph /  3.2km/h 9mph /  14.5km/h 91% 0.07in /  1.8mm 0 W/m2
21:57 54 °F /  12.2 °C 51.4 °F /  10.8 °C 29.6in /  1001.0hPa West 4mph /  6.4km/h 6mph /  9.7km/h 91% 0.09in /  2.3mm 0 W/m2
22:02 53.8 °F /  12.1 °C 51.3 °F /  10.7 °C 29.5in /  1000.3hPa West 6mph /  9.7km/h 8mph /  12.9km/h 91% 0.09in /  2.3mm 0 W/m2
22:07 53.4 °F /  11.9 °C 50.9 °F /  10.5 °C 29.6in /  1000.7hPa SW 2.9mph /  4.7km/h 4mph /  6.4km/h 91% 0.09in /  2.3mm 0 W/m2
22:12 53.2 °F /  11.8 °C 50.7 °F /  10.4 °C 29.6in /  1000.7hPa NW 2.9mph /  4.7km/h 8mph /  12.9km/h 91% 0.09in /  2.3mm 0 W/m2
22:17 53.1 °F /  11.7 °C 50.5 °F /  10.3 °C 29.6in /  1001.0hPa South 2mph /  3.2km/h 6mph /  9.7km/h 91% 0.09in /  2.3mm 0 W/m2
22:22 52.9 °F /  11.6 °C 50.4 °F /  10.2 °C 29.6in /  1001.0hPa West 6mph /  9.7km/h 6mph /  9.7km/h 91% 0.09in /  2.3mm 0 W/m2
22:27 52.7 °F /  11.5 °C 50.2 °F /  10.1 °C 29.6in /  1001.0hPa WSW 4.9mph /  7.9km/h 8mph /  12.9km/h 91% 0.09in /  2.3mm 0 W/m2
22:32 52.9 °F /  11.6 °C 50.4 °F /  10.2 °C 29.6in /  1001.0hPa WSW 0.9mph /  1.4km/h 3mph /  4.8km/h 91% 0.09in /  2.3mm 0 W/m2
22:37 52.7 °F /  11.5 °C 50.4 °F /  10.2 °C 29.6in /  1001.0hPa West 0.9mph /  1.4km/h 7mph /  11.3km/h 92% 0.09in /  2.3mm 0 W/m2
22:42 52.7 °F /  11.5 °C 50.4 °F /  10.2 °C 29.6in /  1001.0hPa WNW 0.9mph /  1.4km/h 1mph /  1.6km/h 92% 0.09in /  2.3mm 0 W/m2
22:47 52.7 °F /  11.5 °C 50.4 °F /  10.2 °C 29.6in /  1001.0hPa WNW 0.9mph /  1.4km/h 2mph /  3.2km/h 92% 0.06in /  1.5mm 0 W/m2
22:52 52.7 °F /  11.5 °C 50.4 °F /  10.2 °C 29.6in /  1001.0hPa Calm   2mph /  3.2km/h 92% 0.02in /  0.5mm 0 W/m2
22:57 52.7 °F /  11.5 °C 50.7 °F /  10.4 °C 29.6in /  1001.4hPa Calm   3mph /  4.8km/h 93% 0in /  0.0mm 0 W/m2
23:02 52.7 °F /  11.5 °C 50.7 °F /  10.4 °C 29.6in /  1001.4hPa North 0.9mph /  1.4km/h 2mph /  3.2km/h 93% 0in /  0.0mm 0 W/m2
23:22 52.5 °F /  11.4 °C 50.5 °F /  10.3 °C 29.6in /  1001.4hPa NW 2mph /  3.2km/h 3mph /  4.8km/h 93% 0in /  0.0mm 0 W/m2
23:27 52.7 °F /  11.5 °C 50.7 °F /  10.4 °C 29.6in /  1001.4hPa Calm   3mph /  4.8km/h 93% 0in /  0.0mm 0 W/m2
23:32 52.7 °F /  11.5 °C 50.7 °F /  10.4 °C 29.6in /  1001.4hPa Calm   2mph /  3.2km/h 93% 0in /  0.0mm 0 W/m2
23:37 52.5 °F /  11.4 °C 50.5 °F /  10.3 °C 29.6in /  1001.4hPa Calm     93% 0in /  0.0mm 0 W/m2
23:42 52.5 °F /  11.4 °C 50.5 °F /  10.3 °C 29.6in /  1001.4hPa NW 0.9mph /  1.4km/h 2mph /  3.2km/h 93% 0in /  0.0mm 0 W/m2
23:47 52.3 °F /  11.3 °C 50.4 °F /  10.2 °C 29.6in /  1001.4hPa WNW 0.9mph /  1.4km/h 2mph /  3.2km/h 93% 0in /  0.0mm 0 W/m2
23:52 52.2 °F /  11.2 °C 50.2 °F /  10.1 °C 29.6in /  1001.4hPa Calm     93% 0in /  0.0mm 0 W/m2
23:57 52.2 °F /  11.2 °C 50.5 °F /  10.3 °C 29.6in /  1001.7hPa WNW 0.9mph /  1.4km/h 4mph /  6.4km/h 94% 0in /  0.0mm 0 W/m2
Juneau County Weather
Compliments of Weather Underground - 4 mb